map of TOD home
TOD - Airport
Location
City:  Pulau Tioman, Johor, Malaysia
ICAO:WMBT
IATA:TOD

Details
Type:Airport (Aerodrome, Airfield)
Latitude:2°49'05"N (2.818183)
Longitude:104°09'36"E (104.160019)
Datum:WGS 1984
Elevation:15 ft (5 m)
Variation:0.16°E (WMM2015 magnetic declination)
-0.01° annual change
Runways:1
Longest:3255 × 100 ft (992 × 30.5 m), paved

Time
Time Zone:UTC+8
Local Time:

Weather
TAF:WMBT 201700Z 2018/2118 34005KT 9999 SCT020 SCT140
TEMPO 2018/2022 4000 RA FEW008 SCT018
TEMPO 2108/2112 4000 TSRA FEW015CB

Related Locations
Nearby:
Farthest:SPAS: 12412 mi / 19976 km
Andoas [Alférez FAP Alfredo Vladimir Sara Bauer Airport], LOR, PE

Find:

   beyond  
but within

Other Information
Maps:
NOTAMs:
Links:
Sources:

  
flag of Malaysia
flag of Johor
  

Sectional Chart

Flight Planning
at skyvector.com

Satellite Image

Google Maps Satellite view

 

Copyright © 2004-2018 Karl L. Swartz. All rights reserved.
The Great Circle Mapper name and logo are trademarks of the Great Circle Mapper.
All other trademarks mentioned herein belong to their respective owners.
Please see credits for attibutions and further copyright information.

  Follow gcmap on Facebook Follow gcmap on Twitter Follow gcmap on Google+ GCmap on LinkedIn

hCard Microformat

Geo Microformat